sensor_id;sensor_type;location;lat;lon;timestamp;P1;durP1;ratioP1;P2;durP2;ratioP2
37087;SDS011;23002;52.676;6.432;2023-06-14T00:00:33;5.38;;;1.10;;
37087;SDS011;23002;52.676;6.432;2023-06-14T00:03:01;3.65;;;1.00;;
37087;SDS011;23002;52.676;6.432;2023-06-14T00:05:30;2.20;;;0.98;;
37087;SDS011;23002;52.676;6.432;2023-06-14T00:07:59;1.70;;;0.90;;
37087;SDS011;23002;52.676;6.432;2023-06-14T00:10:27;4.35;;;1.25;;
37087;SDS011;23002;52.676;6.432;2023-06-14T00:12:57;4.25;;;1.48;;
37087;SDS011;23002;52.676;6.432;2023-06-14T00:15:26;2.33;;;1.20;;
37087;SDS011;23002;52.676;6.432;2023-06-14T00:17:53;1.73;;;0.90;;
37087;SDS011;23002;52.676;6.432;2023-06-14T00:20:21;3.70;;;1.35;;
37087;SDS011;23002;52.676;6.432;2023-06-14T00:22:48;2.08;;;1.10;;
37087;SDS011;23002;52.676;6.432;2023-06-14T00:25:16;2.30;;;1.02;;
37087;SDS011;23002;52.676;6.432;2023-06-14T00:27:54;1.48;;;0.88;;
37087;SDS011;23002;52.676;6.432;2023-06-14T00:30:22;4.45;;;1.08;;
37087;SDS011;23002;52.676;6.432;2023-06-14T00:32:49;4.50;;;1.10;;
37087;SDS011;23002;52.676;6.432;2023-06-14T00:35:17;2.70;;;1.00;;
37087;SDS011;23002;52.676;6.432;2023-06-14T00:37:45;2.45;;;1.20;;
37087;SDS011;23002;52.676;6.432;2023-06-14T00:40:12;3.97;;;0.95;;
37087;SDS011;23002;52.676;6.432;2023-06-14T00:42:40;3.35;;;0.88;;
37087;SDS011;23002;52.676;6.432;2023-06-14T00:45:07;1.45;;;1.10;;
37087;SDS011;23002;52.676;6.432;2023-06-14T00:47:35;7.40;;;1.13;;
37087;SDS011;23002;52.676;6.432;2023-06-14T00:50:05;1.77;;;1.10;;
37087;SDS011;23002;52.676;6.432;2023-06-14T00:52:33;1.77;;;1.00;;
37087;SDS011;23002;52.676;6.432;2023-06-14T00:55:00;4.50;;;1.30;;
37087;SDS011;23002;52.676;6.432;2023-06-14T00:57:28;3.90;;;1.30;;
37087;SDS011;23002;52.676;6.432;2023-06-14T00:59:58;3.70;;;1.23;;
37087;SDS011;23002;52.676;6.432;2023-06-14T01:02:25;1.38;;;0.75;;
37087;SDS011;23002;52.676;6.432;2023-06-14T01:04:52;1.63;;;0.98;;
37087;SDS011;23002;52.676;6.432;2023-06-14T01:07:23;2.58;;;1.25;;
37087;SDS011;23002;52.676;6.432;2023-06-14T01:09:58;1.92;;;0.68;;
37087;SDS011;23002;52.676;6.432;2023-06-14T01:15:09;1.42;;;1.02;;
37087;SDS011;23002;52.676;6.432;2023-06-14T01:17:37;2.00;;;1.00;;
37087;SDS011;23002;52.676;6.432;2023-06-14T01:20:08;1.95;;;1.02;;
37087;SDS011;23002;52.676;6.432;2023-06-14T01:22:42;2.80;;;1.30;;
37087;SDS011;23002;52.676;6.432;2023-06-14T01:25:09;4.38;;;1.50;;
37087;SDS011;23002;52.676;6.432;2023-06-14T01:27:38;1.92;;;0.98;;
37087;SDS011;23002;52.676;6.432;2023-06-14T01:30:06;2.90;;;1.23;;
37087;SDS011;23002;52.676;6.432;2023-06-14T01:32:33;2.13;;;1.10;;
37087;SDS011;23002;52.676;6.432;2023-06-14T01:35:00;3.78;;;1.20;;
37087;SDS011;23002;52.676;6.432;2023-06-14T01:37:28;4.63;;;1.13;;
37087;SDS011;23002;52.676;6.432;2023-06-14T01:39:56;3.60;;;1.15;;
37087;SDS011;23002;52.676;6.432;2023-06-14T01:42:23;2.83;;;1.08;;
37087;SDS011;23002;52.676;6.432;2023-06-14T01:44:51;2.47;;;0.95;;
37087;SDS011;23002;52.676;6.432;2023-06-14T01:47:20;2.10;;;0.85;;
37087;SDS011;23002;52.676;6.432;2023-06-14T01:49:48;2.72;;;1.13;;
37087;SDS011;23002;52.676;6.432;2023-06-14T01:52:15;3.25;;;1.50;;
37087;SDS011;23002;52.676;6.432;2023-06-14T01:54:42;4.45;;;1.25;;
37087;SDS011;23002;52.676;6.432;2023-06-14T01:57:09;3.35;;;0.90;;
37087;SDS011;23002;52.676;6.432;2023-06-14T01:59:37;4.25;;;1.00;;
37087;SDS011;23002;52.676;6.432;2023-06-14T02:02:04;3.45;;;0.90;;
37087;SDS011;23002;52.676;6.432;2023-06-14T02:04:31;2.65;;;1.25;;
37087;SDS011;23002;52.676;6.432;2023-06-14T02:06:59;1.73;;;1.10;;
37087;SDS011;23002;52.676;6.432;2023-06-14T02:09:26;5.10;;;1.27;;
37087;SDS011;23002;52.676;6.432;2023-06-14T02:11:54;1.92;;;1.10;;
37087;SDS011;23002;52.676;6.432;2023-06-14T02:14:21;7.65;;;1.00;;
37087;SDS011;23002;52.676;6.432;2023-06-14T02:16:49;2.35;;;1.23;;
37087;SDS011;23002;52.676;6.432;2023-06-14T02:19:16;3.97;;;1.60;;
37087;SDS011;23002;52.676;6.432;2023-06-14T02:21:43;1.30;;;0.98;;
37087;SDS011;23002;52.676;6.432;2023-06-14T02:24:11;2.40;;;1.10;;
37087;SDS011;23002;52.676;6.432;2023-06-14T02:26:38;1.42;;;0.98;;
37087;SDS011;23002;52.676;6.432;2023-06-14T02:29:06;3.22;;;1.42;;
37087;SDS011;23002;52.676;6.432;2023-06-14T02:31:35;4.47;;;1.27;;
37087;SDS011;23002;52.676;6.432;2023-06-14T02:34:02;3.60;;;1.50;;
37087;SDS011;23002;52.676;6.432;2023-06-14T02:36:30;1.35;;;0.90;;
37087;SDS011;23002;52.676;6.432;2023-06-14T02:38:57;2.65;;;0.80;;
37087;SDS011;23002;52.676;6.432;2023-06-14T02:41:24;3.22;;;0.77;;
37087;SDS011;23002;52.676;6.432;2023-06-14T02:43:52;2.38;;;1.23;;
37087;SDS011;23002;52.676;6.432;2023-06-14T02:46:19;1.67;;;0.90;;
37087;SDS011;23002;52.676;6.432;2023-06-14T02:48:46;1.98;;;0.95;;
37087;SDS011;23002;52.676;6.432;2023-06-14T02:51:14;3.05;;;1.20;;
37087;SDS011;23002;52.676;6.432;2023-06-14T02:53:41;6.35;;;1.52;;
37087;SDS011;23002;52.676;6.432;2023-06-14T02:56:09;4.28;;;1.27;;
37087;SDS011;23002;52.676;6.432;2023-06-14T02:58:37;2.67;;;1.10;;
37087;SDS011;23002;52.676;6.432;2023-06-14T03:01:06;5.20;;;1.20;;
37087;SDS011;23002;52.676;6.432;2023-06-14T03:03:34;1.60;;;0.90;;
37087;SDS011;23002;52.676;6.432;2023-06-14T03:06:01;2.10;;;1.08;;
37087;SDS011;23002;52.676;6.432;2023-06-14T03:08:30;2.85;;;1.00;;
37087;SDS011;23002;52.676;6.432;2023-06-14T03:11:04;1.88;;;1.10;;
37087;SDS011;23002;52.676;6.432;2023-06-14T03:13:32;4.15;;;1.85;;
37087;SDS011;23002;52.676;6.432;2023-06-14T03:15:59;3.85;;;1.45;;
37087;SDS011;23002;52.676;6.432;2023-06-14T03:18:31;3.60;;;1.27;;
37087;SDS011;23002;52.676;6.432;2023-06-14T03:21:02;3.22;;;1.30;;
37087;SDS011;23002;52.676;6.432;2023-06-14T03:23:29;3.97;;;0.95;;
37087;SDS011;23002;52.676;6.432;2023-06-14T03:25:57;2.35;;;0.93;;
37087;SDS011;23002;52.676;6.432;2023-06-14T03:28:24;8.00;;;1.05;;
37087;SDS011;23002;52.676;6.432;2023-06-14T03:30:52;2.53;;;1.10;;
37087;SDS011;23002;52.676;6.432;2023-06-14T03:33:19;4.68;;;2.00;;
37087;SDS011;23002;52.676;6.432;2023-06-14T03:35:47;5.47;;;1.65;;
37087;SDS011;23002;52.676;6.432;2023-06-14T03:38:15;2.05;;;1.17;;
37087;SDS011;23002;52.676;6.432;2023-06-14T03:40:42;2.10;;;1.10;;
37087;SDS011;23002;52.676;6.432;2023-06-14T03:43:10;2.63;;;1.40;;
37087;SDS011;23002;52.676;6.432;2023-06-14T03:45:38;2.00;;;1.15;;
37087;SDS011;23002;52.676;6.432;2023-06-14T03:48:05;3.88;;;1.10;;
37087;SDS011;23002;52.676;6.432;2023-06-14T03:50:33;2.92;;;1.45;;
37087;SDS011;23002;52.676;6.432;2023-06-14T03:53:00;2.25;;;1.27;;
37087;SDS011;23002;52.676;6.432;2023-06-14T03:55:27;2.13;;;1.27;;
37087;SDS011;23002;52.676;6.432;2023-06-14T03:58:00;2.00;;;1.17;;
37087;SDS011;23002;52.676;6.432;2023-06-14T04:00:27;3.78;;;1.20;;
37087;SDS011;23002;52.676;6.432;2023-06-14T04:02:54;1.75;;;1.00;;
37087;SDS011;23002;52.676;6.432;2023-06-14T04:05:22;3.65;;;1.20;;
37087;SDS011;23002;52.676;6.432;2023-06-14T04:07:53;2.20;;;1.17;;
37087;SDS011;23002;52.676;6.432;2023-06-14T04:10:22;2.03;;;1.10;;
37087;SDS011;23002;52.676;6.432;2023-06-14T04:12:49;1.70;;;1.05;;
37087;SDS011;23002;52.676;6.432;2023-06-14T04:15:18;3.08;;;1.27;;
37087;SDS011;23002;52.676;6.432;2023-06-14T04:17:47;3.13;;;1.48;;
37087;SDS011;23002;52.676;6.432;2023-06-14T04:20:15;3.20;;;1.17;;
37087;SDS011;23002;52.676;6.432;2023-06-14T04:22:43;2.75;;;1.23;;
37087;SDS011;23002;52.676;6.432;2023-06-14T04:25:10;4.50;;;1.40;;
37087;SDS011;23002;52.676;6.432;2023-06-14T04:27:38;2.75;;;0.95;;
37087;SDS011;23002;52.676;6.432;2023-06-14T04:30:06;4.05;;;1.58;;
37087;SDS011;23002;52.676;6.432;2023-06-14T04:32:33;2.10;;;1.05;;
37087;SDS011;23002;52.676;6.432;2023-06-14T04:35:06;3.30;;;1.30;;
37087;SDS011;23002;52.676;6.432;2023-06-14T04:37:33;4.45;;;1.60;;
37087;SDS011;23002;52.676;6.432;2023-06-14T04:40:01;3.10;;;1.83;;
37087;SDS011;23002;52.676;6.432;2023-06-14T04:42:31;2.35;;;1.10;;
37087;SDS011;23002;52.676;6.432;2023-06-14T04:44:58;3.00;;;1.17;;
37087;SDS011;23002;52.676;6.432;2023-06-14T04:47:27;2.92;;;1.17;;
37087;SDS011;23002;52.676;6.432;2023-06-14T04:49:58;4.60;;;1.42;;
37087;SDS011;23002;52.676;6.432;2023-06-14T04:52:27;6.75;;;1.42;;
37087;SDS011;23002;52.676;6.432;2023-06-14T04:54:56;5.72;;;1.25;;
37087;SDS011;23002;52.676;6.432;2023-06-14T04:57:24;2.22;;;1.17;;
37087;SDS011;23002;52.676;6.432;2023-06-14T04:59:51;3.97;;;1.40;;
37087;SDS011;23002;52.676;6.432;2023-06-14T05:02:24;3.95;;;1.63;;
37087;SDS011;23002;52.676;6.432;2023-06-14T05:04:52;2.15;;;1.17;;
37087;SDS011;23002;52.676;6.432;2023-06-14T05:07:20;3.17;;;1.33;;
37087;SDS011;23002;52.676;6.432;2023-06-14T05:09:50;2.83;;;1.45;;
37087;SDS011;23002;52.676;6.432;2023-06-14T05:12:17;13.60;;;2.08;;
37087;SDS011;23002;52.676;6.432;2023-06-14T05:14:45;3.35;;;1.50;;
37087;SDS011;23002;52.676;6.432;2023-06-14T05:17:12;3.50;;;1.35;;
37087;SDS011;23002;52.676;6.432;2023-06-14T05:19:39;3.30;;;1.85;;
37087;SDS011;23002;52.676;6.432;2023-06-14T05:22:07;2.65;;;1.30;;
37087;SDS011;23002;52.676;6.432;2023-06-14T05:24:34;3.75;;;1.38;;
37087;SDS011;23002;52.676;6.432;2023-06-14T05:27:01;3.72;;;1.45;;
37087;SDS011;23002;52.676;6.432;2023-06-14T05:29:28;5.05;;;1.50;;
37087;SDS011;23002;52.676;6.432;2023-06-14T05:31:56;3.72;;;1.25;;
37087;SDS011;23002;52.676;6.432;2023-06-14T05:34:23;2.60;;;1.40;;
37087;SDS011;23002;52.676;6.432;2023-06-14T05:36:50;3.35;;;1.30;;
37087;SDS011;23002;52.676;6.432;2023-06-14T05:39:18;1.92;;;1.08;;
37087;SDS011;23002;52.676;6.432;2023-06-14T05:41:45;4.03;;;1.45;;
37087;SDS011;23002;52.676;6.432;2023-06-14T05:44:15;3.03;;;1.98;;
37087;SDS011;23002;52.676;6.432;2023-06-14T05:46:43;4.35;;;1.30;;
37087;SDS011;23002;52.676;6.432;2023-06-14T05:49:10;3.30;;;1.45;;
37087;SDS011;23002;52.676;6.432;2023-06-14T05:51:38;2.15;;;1.08;;
37087;SDS011;23002;52.676;6.432;2023-06-14T05:54:05;4.28;;;1.35;;
37087;SDS011;23002;52.676;6.432;2023-06-14T05:56:33;3.65;;;1.13;;
37087;SDS011;23002;52.676;6.432;2023-06-14T05:59:00;2.10;;;1.20;;
37087;SDS011;23002;52.676;6.432;2023-06-14T06:01:28;3.88;;;1.30;;
37087;SDS011;23002;52.676;6.432;2023-06-14T06:03:56;2.28;;;1.20;;
37087;SDS011;23002;52.676;6.432;2023-06-14T06:06:24;1.65;;;1.08;;
37087;SDS011;23002;52.676;6.432;2023-06-14T06:08:51;2.65;;;1.60;;
37087;SDS011;23002;52.676;6.432;2023-06-14T06:11:18;1.42;;;1.05;;
37087;SDS011;23002;52.676;6.432;2023-06-14T06:13:46;1.90;;;1.08;;
37087;SDS011;23002;52.676;6.432;2023-06-14T06:16:13;3.88;;;1.75;;
37087;SDS011;23002;52.676;6.432;2023-06-14T06:18:41;2.72;;;1.33;;
37087;SDS011;23002;52.676;6.432;2023-06-14T06:21:10;3.55;;;1.20;;
37087;SDS011;23002;52.676;6.432;2023-06-14T06:23:38;3.45;;;1.30;;
37087;SDS011;23002;52.676;6.432;2023-06-14T06:26:05;3.75;;;1.45;;
37087;SDS011;23002;52.676;6.432;2023-06-14T06:28:32;3.00;;;1.02;;
37087;SDS011;23002;52.676;6.432;2023-06-14T06:30:59;1.63;;;1.00;;
37087;SDS011;23002;52.676;6.432;2023-06-14T06:33:30;1.60;;;1.02;;
37087;SDS011;23002;52.676;6.432;2023-06-14T06:35:57;2.35;;;0.95;;
37087;SDS011;23002;52.676;6.432;2023-06-14T06:38:24;2.92;;;1.08;;
37087;SDS011;23002;52.676;6.432;2023-06-14T06:40:52;2.13;;;1.13;;
37087;SDS011;23002;52.676;6.432;2023-06-14T06:43:20;1.90;;;1.05;;
37087;SDS011;23002;52.676;6.432;2023-06-14T06:45:47;1.85;;;1.00;;
37087;SDS011;23002;52.676;6.432;2023-06-14T06:48:15;1.67;;;1.00;;
37087;SDS011;23002;52.676;6.432;2023-06-14T06:50:43;2.00;;;0.88;;
37087;SDS011;23002;52.676;6.432;2023-06-14T06:53:10;1.85;;;1.08;;
37087;SDS011;23002;52.676;6.432;2023-06-14T06:55:38;1.33;;;0.82;;
37087;SDS011;23002;52.676;6.432;2023-06-14T06:58:05;3.13;;;1.10;;
37087;SDS011;23002;52.676;6.432;2023-06-14T07:00:32;2.40;;;0.90;;
37087;SDS011;23002;52.676;6.432;2023-06-14T07:03:00;2.40;;;0.98;;
37087;SDS011;23002;52.676;6.432;2023-06-14T07:05:27;1.30;;;0.70;;
37087;SDS011;23002;52.676;6.432;2023-06-14T07:07:55;1.52;;;0.93;;
37087;SDS011;23002;52.676;6.432;2023-06-14T07:10:23;1.50;;;0.88;;
37087;SDS011;23002;52.676;6.432;2023-06-14T07:12:51;4.70;;;1.23;;
37087;SDS011;23002;52.676;6.432;2023-06-14T07:15:18;1.70;;;0.95;;
37087;SDS011;23002;52.676;6.432;2023-06-14T07:17:45;1.75;;;0.85;;
37087;SDS011;23002;52.676;6.432;2023-06-14T07:20:12;3.42;;;1.20;;
37087;SDS011;23002;52.676;6.432;2023-06-14T07:22:40;2.13;;;0.85;;
37087;SDS011;23002;52.676;6.432;2023-06-14T07:25:09;6.32;;;0.95;;
37087;SDS011;23002;52.676;6.432;2023-06-14T07:30:07;3.15;;;0.80;;
37087;SDS011;23002;52.676;6.432;2023-06-14T07:32:34;1.27;;;0.70;;
37087;SDS011;23002;52.676;6.432;2023-06-14T07:35:02;1.85;;;0.88;;
37087;SDS011;23002;52.676;6.432;2023-06-14T07:37:29;1.60;;;0.80;;
37087;SDS011;23002;52.676;6.432;2023-06-14T07:39:57;1.55;;;0.90;;
37087;SDS011;23002;52.676;6.432;2023-06-14T07:42:24;3.67;;;0.75;;
37087;SDS011;23002;52.676;6.432;2023-06-14T07:44:52;1.30;;;0.80;;
37087;SDS011;23002;52.676;6.432;2023-06-14T07:47:20;1.75;;;0.70;;
37087;SDS011;23002;52.676;6.432;2023-06-14T07:49:47;2.78;;;0.90;;
37087;SDS011;23002;52.676;6.432;2023-06-14T07:52:14;1.25;;;0.60;;
37087;SDS011;23002;52.676;6.432;2023-06-14T07:54:42;4.28;;;1.10;;
37087;SDS011;23002;52.676;6.432;2023-06-14T07:57:09;1.45;;;0.68;;
37087;SDS011;23002;52.676;6.432;2023-06-14T07:59:36;1.58;;;0.80;;
37087;SDS011;23002;52.676;6.432;2023-06-14T08:02:03;3.28;;;1.00;;
37087;SDS011;23002;52.676;6.432;2023-06-14T08:04:31;1.27;;;0.80;;
37087;SDS011;23002;52.676;6.432;2023-06-14T08:06:59;1.85;;;0.80;;
37087;SDS011;23002;52.676;6.432;2023-06-14T08:09:27;3.25;;;0.80;;
37087;SDS011;23002;52.676;6.432;2023-06-14T08:11:55;1.23;;;0.75;;
37087;SDS011;23002;52.676;6.432;2023-06-14T08:14:23;1.40;;;0.70;;
37087;SDS011;23002;52.676;6.432;2023-06-14T08:16:50;1.77;;;0.88;;
37087;SDS011;23002;52.676;6.432;2023-06-14T08:19:17;2.05;;;0.85;;
37087;SDS011;23002;52.676;6.432;2023-06-14T08:21:46;1.05;;;0.60;;
37087;SDS011;23002;52.676;6.432;2023-06-14T08:24:13;1.35;;;0.77;;
37087;SDS011;23002;52.676;6.432;2023-06-14T08:26:41;2.05;;;0.80;;
37087;SDS011;23002;52.676;6.432;2023-06-14T08:29:08;2.22;;;0.73;;
37087;SDS011;23002;52.676;6.432;2023-06-14T08:31:36;2.03;;;0.90;;
37087;SDS011;23002;52.676;6.432;2023-06-14T08:34:03;3.28;;;0.82;;
37087;SDS011;23002;52.676;6.432;2023-06-14T08:36:32;2.72;;;1.05;;
37087;SDS011;23002;52.676;6.432;2023-06-14T08:38:59;1.85;;;0.85;;
37087;SDS011;23002;52.676;6.432;2023-06-14T08:41:27;3.22;;;0.60;;
37087;SDS011;23002;52.676;6.432;2023-06-14T08:43:56;0.90;;;0.60;;
37087;SDS011;23002;52.676;6.432;2023-06-14T08:46:24;0.80;;;0.50;;
37087;SDS011;23002;52.676;6.432;2023-06-14T08:48:54;1.45;;;0.70;;
37087;SDS011;23002;52.676;6.432;2023-06-14T08:51:23;0.85;;;0.47;;
37087;SDS011;23002;52.676;6.432;2023-06-14T08:53:53;1.40;;;0.80;;
37087;SDS011;23002;52.676;6.432;2023-06-14T08:56:27;3.85;;;0.70;;
37087;SDS011;23002;52.676;6.432;2023-06-14T08:58:55;1.90;;;0.47;;
37087;SDS011;23002;52.676;6.432;2023-06-14T09:01:23;1.00;;;0.50;;
37087;SDS011;23002;52.676;6.432;2023-06-14T09:03:51;1.50;;;0.85;;
37087;SDS011;23002;52.676;6.432;2023-06-14T09:06:21;1.33;;;0.65;;
37087;SDS011;23002;52.676;6.432;2023-06-14T09:08:49;1.65;;;0.82;;
37087;SDS011;23002;52.676;6.432;2023-06-14T09:11:17;1.30;;;0.80;;
37087;SDS011;23002;52.676;6.432;2023-06-14T09:13:48;1.42;;;0.73;;
37087;SDS011;23002;52.676;6.432;2023-06-14T09:16:15;2.80;;;0.80;;
37087;SDS011;23002;52.676;6.432;2023-06-14T09:18:44;0.75;;;0.57;;
37087;SDS011;23002;52.676;6.432;2023-06-14T09:23:42;2.38;;;0.70;;
37087;SDS011;23002;52.676;6.432;2023-06-14T09:26:10;2.67;;;1.15;;
37087;SDS011;23002;52.676;6.432;2023-06-14T09:28:41;4.43;;;1.38;;
37087;SDS011;23002;52.676;6.432;2023-06-14T09:31:12;3.25;;;0.68;;
37087;SDS011;23002;52.676;6.432;2023-06-14T09:36:11;2.72;;;0.70;;
37087;SDS011;23002;52.676;6.432;2023-06-14T09:38:40;1.35;;;0.70;;
37087;SDS011;23002;52.676;6.432;2023-06-14T09:41:07;0.85;;;0.50;;
37087;SDS011;23002;52.676;6.432;2023-06-14T09:43:35;0.70;;;0.52;;
37087;SDS011;23002;52.676;6.432;2023-06-14T09:46:03;0.93;;;0.47;;
37087;SDS011;23002;52.676;6.432;2023-06-14T09:48:31;1.05;;;0.52;;
37087;SDS011;23002;52.676;6.432;2023-06-14T09:50:59;1.92;;;0.60;;
37087;SDS011;23002;52.676;6.432;2023-06-14T09:53:27;2.03;;;0.55;;
37087;SDS011;23002;52.676;6.432;2023-06-14T09:55:55;2.75;;;0.93;;
37087;SDS011;23002;52.676;6.432;2023-06-14T09:58:23;1.98;;;0.50;;
37087;SDS011;23002;52.676;6.432;2023-06-14T10:00:52;0.65;;;0.40;;
37087;SDS011;23002;52.676;6.432;2023-06-14T10:03:24;2.03;;;0.60;;
37087;SDS011;23002;52.676;6.432;2023-06-14T10:05:52;3.70;;;0.75;;
37087;SDS011;23002;52.676;6.432;2023-06-14T10:08:23;0.82;;;0.52;;
37087;SDS011;23002;52.676;6.432;2023-06-14T10:10:53;2.10;;;0.55;;
37087;SDS011;23002;52.676;6.432;2023-06-14T10:13:20;0.88;;;0.43;;
37087;SDS011;23002;52.676;6.432;2023-06-14T10:15:52;0.93;;;0.50;;
37087;SDS011;23002;52.676;6.432;2023-06-14T10:18:31;0.77;;;0.50;;
37087;SDS011;23002;52.676;6.432;2023-06-14T10:23:32;0.88;;;0.40;;
37087;SDS011;23002;52.676;6.432;2023-06-14T10:26:02;1.17;;;0.57;;
37087;SDS011;23002;52.676;6.432;2023-06-14T10:28:29;0.75;;;0.50;;
37087;SDS011;23002;52.676;6.432;2023-06-14T10:31:11;1.52;;;0.50;;
37087;SDS011;23002;52.676;6.432;2023-06-14T10:33:50;1.60;;;0.60;;
37087;SDS011;23002;52.676;6.432;2023-06-14T10:41:26;1.08;;;0.50;;
37087;SDS011;23002;52.676;6.432;2023-06-14T10:46:54;2.67;;;0.73;;
37087;SDS011;23002;52.676;6.432;2023-06-14T10:49:36;1.35;;;0.68;;
37087;SDS011;23002;52.676;6.432;2023-06-14T10:52:13;3.45;;;0.70;;
37087;SDS011;23002;52.676;6.432;2023-06-14T10:57:28;1.48;;;0.52;;
37087;SDS011;23002;52.676;6.432;2023-06-14T11:00:04;1.33;;;0.60;;
37087;SDS011;23002;52.676;6.432;2023-06-14T11:02:51;1.60;;;0.50;;
37087;SDS011;23002;52.676;6.432;2023-06-14T11:05:24;0.60;;;0.40;;
37087;SDS011;23002;52.676;6.432;2023-06-14T11:10:39;3.33;;;0.77;;
37087;SDS011;23002;52.676;6.432;2023-06-14T11:13:07;1.63;;;0.57;;
37087;SDS011;23002;52.676;6.432;2023-06-14T11:15:36;3.65;;;0.50;;
37087;SDS011;23002;52.676;6.432;2023-06-14T11:18:07;0.70;;;0.40;;
37087;SDS011;23002;52.676;6.432;2023-06-14T11:20:36;1.15;;;0.70;;
37087;SDS011;23002;52.676;6.432;2023-06-14T11:23:06;1.20;;;0.70;;
37087;SDS011;23002;52.676;6.432;2023-06-14T11:25:33;1.30;;;0.60;;
37087;SDS011;23002;52.676;6.432;2023-06-14T11:28:01;2.30;;;0.73;;
37087;SDS011;23002;52.676;6.432;2023-06-14T11:30:28;1.38;;;0.50;;
37087;SDS011;23002;52.676;6.432;2023-06-14T11:32:55;1.63;;;0.80;;
37087;SDS011;23002;52.676;6.432;2023-06-14T11:35:24;1.20;;;0.55;;
37087;SDS011;23002;52.676;6.432;2023-06-14T11:37:53;1.95;;;0.60;;
37087;SDS011;23002;52.676;6.432;2023-06-14T11:40:23;2.35;;;0.73;;
37087;SDS011;23002;52.676;6.432;2023-06-14T11:42:53;1.55;;;0.80;;
37087;SDS011;23002;52.676;6.432;2023-06-14T11:45:24;1.02;;;0.65;;
37087;SDS011;23002;52.676;6.432;2023-06-14T11:47:53;0.50;;;0.50;;
37087;SDS011;23002;52.676;6.432;2023-06-14T11:50:21;2.72;;;0.75;;
37087;SDS011;23002;52.676;6.432;2023-06-14T11:52:59;2.40;;;0.75;;
37087;SDS011;23002;52.676;6.432;2023-06-14T11:55:36;2.22;;;0.90;;
37087;SDS011;23002;52.676;6.432;2023-06-14T11:58:04;2.58;;;0.60;;
37087;SDS011;23002;52.676;6.432;2023-06-14T12:00:31;1.08;;;0.60;;
37087;SDS011;23002;52.676;6.432;2023-06-14T12:02:59;2.15;;;0.70;;
37087;SDS011;23002;52.676;6.432;2023-06-14T12:05:27;0.95;;;0.60;;
37087;SDS011;23002;52.676;6.432;2023-06-14T12:07:58;3.03;;;0.70;;
37087;SDS011;23002;52.676;6.432;2023-06-14T12:10:26;0.88;;;0.63;;
37087;SDS011;23002;52.676;6.432;2023-06-14T12:12:57;1.50;;;0.73;;
37087;SDS011;23002;52.676;6.432;2023-06-14T12:15:29;1.48;;;0.50;;
37087;SDS011;23002;52.676;6.432;2023-06-14T12:17:57;3.28;;;0.50;;
37087;SDS011;23002;52.676;6.432;2023-06-14T12:20:28;1.48;;;0.77;;
37087;SDS011;23002;52.676;6.432;2023-06-14T12:22:57;0.98;;;0.50;;
37087;SDS011;23002;52.676;6.432;2023-06-14T12:25:31;1.52;;;0.73;;
37087;SDS011;23002;52.676;6.432;2023-06-14T12:28:03;3.15;;;0.65;;
37087;SDS011;23002;52.676;6.432;2023-06-14T12:30:32;1.77;;;0.60;;
37087;SDS011;23002;52.676;6.432;2023-06-14T12:32:59;0.45;;;0.40;;
37087;SDS011;23002;52.676;6.432;2023-06-14T12:35:27;1.27;;;0.70;;
37087;SDS011;23002;52.676;6.432;2023-06-14T12:37:54;1.25;;;0.60;;
37087;SDS011;23002;52.676;6.432;2023-06-14T12:40:22;2.28;;;0.70;;
37087;SDS011;23002;52.676;6.432;2023-06-14T12:42:50;1.45;;;0.55;;
37087;SDS011;23002;52.676;6.432;2023-06-14T12:45:17;1.38;;;0.60;;
37087;SDS011;23002;52.676;6.432;2023-06-14T12:47:44;1.10;;;0.55;;
37087;SDS011;23002;52.676;6.432;2023-06-14T12:50:12;0.73;;;0.50;;
37087;SDS011;23002;52.676;6.432;2023-06-14T12:52:40;0.90;;;0.55;;
37087;SDS011;23002;52.676;6.432;2023-06-14T12:55:07;1.05;;;0.70;;
37087;SDS011;23002;52.676;6.432;2023-06-14T12:57:35;1.20;;;0.68;;
37087;SDS011;23002;52.676;6.432;2023-06-14T13:00:03;2.63;;;0.60;;
37087;SDS011;23002;52.676;6.432;2023-06-14T13:02:32;1.80;;;0.73;;
37087;SDS011;23002;52.676;6.432;2023-06-14T13:04:59;1.10;;;0.70;;
37087;SDS011;23002;52.676;6.432;2023-06-14T13:07:26;1.67;;;0.75;;
37087;SDS011;23002;52.676;6.432;2023-06-14T13:09:54;2.72;;;0.60;;
37087;SDS011;23002;52.676;6.432;2023-06-14T13:12:21;4.18;;;0.77;;
37087;SDS011;23002;52.676;6.432;2023-06-14T13:14:48;2.00;;;0.60;;
37087;SDS011;23002;52.676;6.432;2023-06-14T13:17:16;1.60;;;0.60;;
37087;SDS011;23002;52.676;6.432;2023-06-14T13:19:43;0.70;;;0.60;;
37087;SDS011;23002;52.676;6.432;2023-06-14T13:22:11;1.27;;;0.73;;
37087;SDS011;23002;52.676;6.432;2023-06-14T13:24:38;1.63;;;0.60;;
37087;SDS011;23002;52.676;6.432;2023-06-14T13:27:06;0.85;;;0.60;;
37087;SDS011;23002;52.676;6.432;2023-06-14T13:29:33;1.33;;;0.70;;
37087;SDS011;23002;52.676;6.432;2023-06-14T13:32:03;1.25;;;0.70;;
37087;SDS011;23002;52.676;6.432;2023-06-14T13:34:30;1.17;;;0.70;;
37087;SDS011;23002;52.676;6.432;2023-06-14T13:36:57;1.10;;;0.50;;
37087;SDS011;23002;52.676;6.432;2023-06-14T13:39:25;2.53;;;0.70;;
37087;SDS011;23002;52.676;6.432;2023-06-14T13:41:53;2.05;;;0.70;;
37087;SDS011;23002;52.676;6.432;2023-06-14T13:44:20;1.27;;;0.60;;
37087;SDS011;23002;52.676;6.432;2023-06-14T13:46:47;1.33;;;0.70;;
37087;SDS011;23002;52.676;6.432;2023-06-14T13:49:15;1.25;;;0.70;;
37087;SDS011;23002;52.676;6.432;2023-06-14T13:51:42;1.40;;;0.63;;
37087;SDS011;23002;52.676;6.432;2023-06-14T13:54:12;1.67;;;0.70;;
37087;SDS011;23002;52.676;6.432;2023-06-14T13:56:41;1.63;;;0.70;;
37087;SDS011;23002;52.676;6.432;2023-06-14T13:59:08;0.93;;;0.55;;
37087;SDS011;23002;52.676;6.432;2023-06-14T14:01:35;1.88;;;0.73;;
37087;SDS011;23002;52.676;6.432;2023-06-14T14:04:03;1.10;;;0.52;;
37087;SDS011;23002;52.676;6.432;2023-06-14T14:06:31;3.60;;;0.88;;
37087;SDS011;23002;52.676;6.432;2023-06-14T14:08:58;0.80;;;0.60;;
37087;SDS011;23002;52.676;6.432;2023-06-14T14:11:25;2.20;;;0.85;;
37087;SDS011;23002;52.676;6.432;2023-06-14T14:13:54;0.85;;;0.60;;
37087;SDS011;23002;52.676;6.432;2023-06-14T14:16:21;3.50;;;0.70;;
37087;SDS011;23002;52.676;6.432;2023-06-14T14:18:49;0.95;;;0.75;;
37087;SDS011;23002;52.676;6.432;2023-06-14T14:21:16;0.65;;;0.55;;
37087;SDS011;23002;52.676;6.432;2023-06-14T14:23:44;1.20;;;0.60;;
37087;SDS011;23002;52.676;6.432;2023-06-14T14:26:11;0.65;;;0.50;;
37087;SDS011;23002;52.676;6.432;2023-06-14T14:28:39;2.15;;;0.85;;
37087;SDS011;23002;52.676;6.432;2023-06-14T14:31:06;1.27;;;0.70;;
37087;SDS011;23002;52.676;6.432;2023-06-14T14:33:33;1.15;;;0.70;;
37087;SDS011;23002;52.676;6.432;2023-06-14T14:36:01;2.08;;;0.90;;
37087;SDS011;23002;52.676;6.432;2023-06-14T14:38:30;0.85;;;0.60;;
37087;SDS011;23002;52.676;6.432;2023-06-14T14:40:57;0.98;;;0.60;;
37087;SDS011;23002;52.676;6.432;2023-06-14T14:43:24;1.65;;;0.80;;
37087;SDS011;23002;52.676;6.432;2023-06-14T14:45:52;1.55;;;0.82;;
37087;SDS011;23002;52.676;6.432;2023-06-14T14:48:19;1.08;;;0.60;;
37087;SDS011;23002;52.676;6.432;2023-06-14T14:50:47;0.73;;;0.60;;
37087;SDS011;23002;52.676;6.432;2023-06-14T14:53:14;1.10;;;0.70;;
37087;SDS011;23002;52.676;6.432;2023-06-14T14:55:44;2.00;;;0.88;;
37087;SDS011;23002;52.676;6.432;2023-06-14T14:58:12;0.88;;;0.70;;
37087;SDS011;23002;52.676;6.432;2023-06-14T15:00:39;0.98;;;0.60;;
37087;SDS011;23002;52.676;6.432;2023-06-14T15:03:06;1.40;;;0.50;;
37087;SDS011;23002;52.676;6.432;2023-06-14T15:05:34;1.88;;;0.70;;
37087;SDS011;23002;52.676;6.432;2023-06-14T15:08:01;1.13;;;0.73;;
37087;SDS011;23002;52.676;6.432;2023-06-14T15:10:28;2.08;;;0.70;;
37087;SDS011;23002;52.676;6.432;2023-06-14T15:12:55;2.08;;;1.00;;
37087;SDS011;23002;52.676;6.432;2023-06-14T15:15:22;1.13;;;0.73;;
37087;SDS011;23002;52.676;6.432;2023-06-14T15:17:49;1.35;;;0.63;;
37087;SDS011;23002;52.676;6.432;2023-06-14T15:20:17;0.98;;;0.60;;